sensor_id;sensor_type;location;lat;lon;timestamp;P1;durP1;ratioP1;P2;durP2;ratioP2
72974;SDS011;61166;54.228;37.632;2023-07-30T00:02:04;344.10;;;132.05;;
72974;SDS011;61166;54.228;37.632;2023-07-30T00:04:31;342.30;;;132.00;;
72974;SDS011;61166;54.228;37.632;2023-07-30T00:06:57;352.50;;;133.45;;
72974;SDS011;61166;54.228;37.632;2023-07-30T00:09:24;351.40;;;133.38;;
72974;SDS011;61166;54.228;37.632;2023-07-30T00:11:50;367.33;;;136.90;;
72974;SDS011;61166;54.228;37.632;2023-07-30T00:14:17;348.35;;;131.32;;
72974;SDS011;61166;54.228;37.632;2023-07-30T00:16:43;325.17;;;127.10;;
72974;SDS011;61166;54.228;37.632;2023-07-30T00:19:10;322.95;;;126.32;;
72974;SDS011;61166;54.228;37.632;2023-07-30T00:21:36;336.15;;;128.80;;
72974;SDS011;61166;54.228;37.632;2023-07-30T00:24:03;329.80;;;128.43;;
72974;SDS011;61166;54.228;37.632;2023-07-30T00:26:30;327.77;;;127.90;;
72974;SDS011;61166;54.228;37.632;2023-07-30T00:28:56;329.37;;;128.40;;
72974;SDS011;61166;54.228;37.632;2023-07-30T00:31:23;338.92;;;130.55;;
72974;SDS011;61166;54.228;37.632;2023-07-30T00:33:49;334.20;;;129.40;;
72974;SDS011;61166;54.228;37.632;2023-07-30T00:36:16;332.80;;;129.50;;
72974;SDS011;61166;54.228;37.632;2023-07-30T00:38:42;331.83;;;129.50;;
72974;SDS011;61166;54.228;37.632;2023-07-30T00:41:09;335.20;;;129.13;;
72974;SDS011;61166;54.228;37.632;2023-07-30T00:43:35;348.88;;;134.00;;
72974;SDS011;61166;54.228;37.632;2023-07-30T00:46:02;344.92;;;135.55;;
72974;SDS011;61166;54.228;37.632;2023-07-30T00:48:28;357.00;;;138.52;;
72974;SDS011;61166;54.228;37.632;2023-07-30T00:50:55;375.92;;;139.70;;
72974;SDS011;61166;54.228;37.632;2023-07-30T00:53:22;369.80;;;139.97;;
72974;SDS011;61166;54.228;37.632;2023-07-30T00:55:50;388.20;;;143.45;;
72974;SDS011;61166;54.228;37.632;2023-07-30T00:58:16;432.65;;;154.52;;
72974;SDS011;61166;54.228;37.632;2023-07-30T01:00:43;421.90;;;153.65;;
72974;SDS011;61166;54.228;37.632;2023-07-30T01:03:09;392.77;;;146.73;;
72974;SDS011;61166;54.228;37.632;2023-07-30T01:05:36;396.97;;;146.27;;
72974;SDS011;61166;54.228;37.632;2023-07-30T01:08:02;396.70;;;146.23;;
72974;SDS011;61166;54.228;37.632;2023-07-30T01:10:30;399.95;;;146.55;;
72974;SDS011;61166;54.228;37.632;2023-07-30T01:12:57;396.45;;;144.95;;
72974;SDS011;61166;54.228;37.632;2023-07-30T01:15:24;387.08;;;143.45;;
72974;SDS011;61166;54.228;37.632;2023-07-30T01:17:51;374.13;;;138.57;;
72974;SDS011;61166;54.228;37.632;2023-07-30T01:20:18;368.17;;;137.55;;
72974;SDS011;61166;54.228;37.632;2023-07-30T01:22:44;342.75;;;131.95;;
72974;SDS011;61166;54.228;37.632;2023-07-30T01:25:11;361.50;;;136.13;;
72974;SDS011;61166;54.228;37.632;2023-07-30T01:27:39;348.98;;;133.02;;
72974;SDS011;61166;54.228;37.632;2023-07-30T01:30:07;347.33;;;132.07;;
72974;SDS011;61166;54.228;37.632;2023-07-30T01:32:35;318.65;;;124.75;;
72974;SDS011;61166;54.228;37.632;2023-07-30T01:35:02;322.30;;;125.30;;
72974;SDS011;61166;54.228;37.632;2023-07-30T01:37:29;331.80;;;128.80;;
72974;SDS011;61166;54.228;37.632;2023-07-30T01:39:56;327.67;;;127.28;;
72974;SDS011;61166;54.228;37.632;2023-07-30T01:42:27;336.90;;;127.80;;
72974;SDS011;61166;54.228;37.632;2023-07-30T01:44:54;363.15;;;134.98;;
72974;SDS011;61166;54.228;37.632;2023-07-30T01:47:20;434.70;;;155.20;;
72974;SDS011;61166;54.228;37.632;2023-07-30T01:49:47;365.63;;;137.35;;
72974;SDS011;61166;54.228;37.632;2023-07-30T01:52:13;366.25;;;135.85;;
72974;SDS011;61166;54.228;37.632;2023-07-30T01:54:39;350.57;;;133.80;;
72974;SDS011;61166;54.228;37.632;2023-07-30T01:57:06;312.50;;;125.43;;
72974;SDS011;61166;54.228;37.632;2023-07-30T01:59:32;323.77;;;127.13;;
72974;SDS011;61166;54.228;37.632;2023-07-30T02:01:59;328.80;;;127.97;;
72974;SDS011;61166;54.228;37.632;2023-07-30T02:04:25;315.83;;;126.35;;
72974;SDS011;61166;54.228;37.632;2023-07-30T02:06:52;318.00;;;125.43;;
72974;SDS011;61166;54.228;37.632;2023-07-30T02:09:18;326.83;;;129.88;;
72974;SDS011;61166;54.228;37.632;2023-07-30T02:11:45;333.42;;;129.98;;
72974;SDS011;61166;54.228;37.632;2023-07-30T02:14:11;342.27;;;132.50;;
72974;SDS011;61166;54.228;37.632;2023-07-30T02:16:37;377.08;;;138.85;;
72974;SDS011;61166;54.228;37.632;2023-07-30T02:19:04;409.87;;;147.20;;
72974;SDS011;61166;54.228;37.632;2023-07-30T02:21:30;383.90;;;141.18;;
72974;SDS011;61166;54.228;37.632;2023-07-30T02:23:57;412.27;;;147.32;;
72974;SDS011;61166;54.228;37.632;2023-07-30T02:26:23;383.75;;;141.82;;
72974;SDS011;61166;54.228;37.632;2023-07-30T02:28:50;357.88;;;135.68;;
72974;SDS011;61166;54.228;37.632;2023-07-30T02:31:16;325.87;;;127.50;;
72974;SDS011;61166;54.228;37.632;2023-07-30T02:33:43;298.13;;;120.70;;
72974;SDS011;61166;54.228;37.632;2023-07-30T02:36:09;289.00;;;119.57;;
72974;SDS011;61166;54.228;37.632;2023-07-30T02:38:35;279.58;;;117.50;;
72974;SDS011;61166;54.228;37.632;2023-07-30T02:41:02;283.88;;;120.00;;
72974;SDS011;61166;54.228;37.632;2023-07-30T02:43:28;270.27;;;116.13;;
72974;SDS011;61166;54.228;37.632;2023-07-30T02:45:55;259.42;;;112.95;;
72974;SDS011;61166;54.228;37.632;2023-07-30T02:48:21;245.20;;;106.03;;
72974;SDS011;61166;54.228;37.632;2023-07-30T02:50:48;249.48;;;107.47;;
72974;SDS011;61166;54.228;37.632;2023-07-30T02:53:14;254.55;;;110.18;;
72974;SDS011;61166;54.228;37.632;2023-07-30T02:55:40;252.23;;;108.77;;
72974;SDS011;61166;54.228;37.632;2023-07-30T02:58:07;243.77;;;106.90;;
72974;SDS011;61166;54.228;37.632;2023-07-30T03:00:33;237.68;;;104.47;;
72974;SDS011;61166;54.228;37.632;2023-07-30T03:03:00;227.85;;;101.97;;
72974;SDS011;61166;54.228;37.632;2023-07-30T03:05:26;218.60;;;100.93;;
72974;SDS011;61166;54.228;37.632;2023-07-30T03:07:53;209.77;;;98.50;;
72974;SDS011;61166;54.228;37.632;2023-07-30T03:10:19;190.57;;;93.30;;
72974;SDS011;61166;54.228;37.632;2023-07-30T03:12:46;166.30;;;87.95;;
72974;SDS011;61166;54.228;37.632;2023-07-30T03:15:12;139.13;;;77.95;;
72974;SDS011;61166;54.228;37.632;2023-07-30T03:17:39;88.22;;;61.33;;
72974;SDS011;61166;54.228;37.632;2023-07-30T03:20:05;85.57;;;59.10;;
72974;SDS011;61166;54.228;37.632;2023-07-30T03:22:32;92.75;;;63.25;;
72974;SDS011;61166;54.228;37.632;2023-07-30T03:24:58;77.20;;;57.10;;
72974;SDS011;61166;54.228;37.632;2023-07-30T03:27:25;65.30;;;51.08;;
72974;SDS011;61166;54.228;37.632;2023-07-30T03:29:51;43.55;;;38.58;;
72974;SDS011;61166;54.228;37.632;2023-07-30T03:32:18;40.93;;;32.80;;
72974;SDS011;61166;54.228;37.632;2023-07-30T03:34:44;33.50;;;26.75;;
72974;SDS011;61166;54.228;37.632;2023-07-30T03:37:11;39.63;;;30.70;;
72974;SDS011;61166;54.228;37.632;2023-07-30T03:39:37;38.67;;;32.13;;
72974;SDS011;61166;54.228;37.632;2023-07-30T03:42:04;46.13;;;38.70;;
72974;SDS011;61166;54.228;37.632;2023-07-30T03:44:30;57.37;;;45.53;;
72974;SDS011;61166;54.228;37.632;2023-07-30T03:46:57;49.30;;;41.78;;
72974;SDS011;61166;54.228;37.632;2023-07-30T03:49:23;42.92;;;37.50;;
72974;SDS011;61166;54.228;37.632;2023-07-30T03:51:49;45.80;;;38.85;;
72974;SDS011;61166;54.228;37.632;2023-07-30T03:54:16;45.53;;;38.28;;
72974;SDS011;61166;54.228;37.632;2023-07-30T03:56:42;31.33;;;27.03;;
72974;SDS011;61166;54.228;37.632;2023-07-30T03:59:09;31.73;;;28.45;;
72974;SDS011;61166;54.228;37.632;2023-07-30T04:01:35;52.10;;;45.53;;
72974;SDS011;61166;54.228;37.632;2023-07-30T04:04:02;52.83;;;46.42;;
72974;SDS011;61166;54.228;37.632;2023-07-30T04:06:29;51.88;;;46.22;;
72974;SDS011;61166;54.228;37.632;2023-07-30T04:08:55;35.03;;;30.27;;
72974;SDS011;61166;54.228;37.632;2023-07-30T04:11:21;28.95;;;23.23;;
72974;SDS011;61166;54.228;37.632;2023-07-30T04:13:48;28.00;;;18.33;;
72974;SDS011;61166;54.228;37.632;2023-07-30T04:16:14;20.85;;;13.25;;
72974;SDS011;61166;54.228;37.632;2023-07-30T04:18:41;21.63;;;13.10;;
72974;SDS011;61166;54.228;37.632;2023-07-30T04:21:07;18.17;;;13.63;;
72974;SDS011;61166;54.228;37.632;2023-07-30T04:23:34;20.25;;;13.48;;
72974;SDS011;61166;54.228;37.632;2023-07-30T04:26:00;21.63;;;14.75;;
72974;SDS011;61166;54.228;37.632;2023-07-30T04:28:27;14.93;;;11.50;;
72974;SDS011;61166;54.228;37.632;2023-07-30T04:30:53;18.60;;;13.05;;
72974;SDS011;61166;54.228;37.632;2023-07-30T04:33:19;17.57;;;12.70;;
72974;SDS011;61166;54.228;37.632;2023-07-30T04:35:46;16.73;;;13.60;;
72974;SDS011;61166;54.228;37.632;2023-07-30T04:40:58;19.95;;;15.00;;
72974;SDS011;61166;54.228;37.632;2023-07-30T04:43:24;15.02;;;13.18;;
72974;SDS011;61166;54.228;37.632;2023-07-30T04:45:51;18.73;;;13.97;;
72974;SDS011;61166;54.228;37.632;2023-07-30T04:48:17;17.70;;;15.25;;
72974;SDS011;61166;54.228;37.632;2023-07-30T04:50:43;16.27;;;14.32;;
72974;SDS011;61166;54.228;37.632;2023-07-30T04:53:10;18.83;;;13.27;;
72974;SDS011;61166;54.228;37.632;2023-07-30T04:55:36;16.10;;;14.38;;
72974;SDS011;61166;54.228;37.632;2023-07-30T04:58:03;17.43;;;13.83;;
72974;SDS011;61166;54.228;37.632;2023-07-30T05:00:29;16.33;;;14.63;;
72974;SDS011;61166;54.228;37.632;2023-07-30T05:02:56;17.88;;;16.02;;
72974;SDS011;61166;54.228;37.632;2023-07-30T05:05:22;18.65;;;14.38;;
72974;SDS011;61166;54.228;37.632;2023-07-30T05:07:49;18.02;;;14.57;;
72974;SDS011;61166;54.228;37.632;2023-07-30T05:10:15;18.23;;;15.80;;
72974;SDS011;61166;54.228;37.632;2023-07-30T05:12:42;18.88;;;12.48;;
72974;SDS011;61166;54.228;37.632;2023-07-30T05:15:08;14.63;;;9.18;;
72974;SDS011;61166;54.228;37.632;2023-07-30T05:17:35;14.32;;;9.73;;
72974;SDS011;61166;54.228;37.632;2023-07-30T05:20:01;13.27;;;7.55;;
72974;SDS011;61166;54.228;37.632;2023-07-30T05:22:27;13.03;;;8.67;;
72974;SDS011;61166;54.228;37.632;2023-07-30T05:24:54;12.85;;;8.27;;
72974;SDS011;61166;54.228;37.632;2023-07-30T05:27:20;15.50;;;8.13;;
72974;SDS011;61166;54.228;37.632;2023-07-30T05:29:47;13.43;;;7.03;;
72974;SDS011;61166;54.228;37.632;2023-07-30T05:32:15;12.98;;;7.43;;
72974;SDS011;61166;54.228;37.632;2023-07-30T05:34:41;14.73;;;7.53;;
72974;SDS011;61166;54.228;37.632;2023-07-30T05:37:09;14.73;;;7.75;;
72974;SDS011;61166;54.228;37.632;2023-07-30T05:39:35;14.68;;;7.30;;
72974;SDS011;61166;54.228;37.632;2023-07-30T05:42:02;12.27;;;7.68;;
72974;SDS011;61166;54.228;37.632;2023-07-30T05:44:28;12.15;;;7.70;;
72974;SDS011;61166;54.228;37.632;2023-07-30T05:46:55;12.33;;;6.43;;
72974;SDS011;61166;54.228;37.632;2023-07-30T05:49:21;10.82;;;6.75;;
72974;SDS011;61166;54.228;37.632;2023-07-30T05:51:48;10.77;;;6.68;;
72974;SDS011;61166;54.228;37.632;2023-07-30T05:54:14;11.98;;;7.20;;
72974;SDS011;61166;54.228;37.632;2023-07-30T05:56:41;11.43;;;7.53;;
72974;SDS011;61166;54.228;37.632;2023-07-30T05:59:07;11.40;;;8.60;;
72974;SDS011;61166;54.228;37.632;2023-07-30T06:01:34;11.88;;;7.60;;
72974;SDS011;61166;54.228;37.632;2023-07-30T06:04:00;11.25;;;6.93;;
72974;SDS011;61166;54.228;37.632;2023-07-30T06:06:27;10.27;;;6.38;;
72974;SDS011;61166;54.228;37.632;2023-07-30T06:08:54;13.48;;;7.38;;
72974;SDS011;61166;54.228;37.632;2023-07-30T06:11:20;13.50;;;10.43;;
72974;SDS011;61166;54.228;37.632;2023-07-30T06:13:47;12.05;;;9.00;;
72974;SDS011;61166;54.228;37.632;2023-07-30T06:16:14;13.32;;;9.73;;
72974;SDS011;61166;54.228;37.632;2023-07-30T06:18:41;12.68;;;9.23;;
72974;SDS011;61166;54.228;37.632;2023-07-30T06:21:07;13.55;;;9.10;;
72974;SDS011;61166;54.228;37.632;2023-07-30T06:23:34;11.93;;;8.70;;
72974;SDS011;61166;54.228;37.632;2023-07-30T06:26:00;15.27;;;10.52;;
72974;SDS011;61166;54.228;37.632;2023-07-30T06:28:26;15.98;;;11.95;;
72974;SDS011;61166;54.228;37.632;2023-07-30T06:30:53;16.10;;;11.50;;
72974;SDS011;61166;54.228;37.632;2023-07-30T06:33:19;12.95;;;11.00;;
72974;SDS011;61166;54.228;37.632;2023-07-30T06:35:46;16.33;;;10.53;;
72974;SDS011;61166;54.228;37.632;2023-07-30T06:38:12;17.17;;;12.43;;
72974;SDS011;61166;54.228;37.632;2023-07-30T06:40:39;14.02;;;11.60;;
72974;SDS011;61166;54.228;37.632;2023-07-30T06:43:05;14.88;;;11.93;;
72974;SDS011;61166;54.228;37.632;2023-07-30T06:45:32;16.02;;;11.55;;
72974;SDS011;61166;54.228;37.632;2023-07-30T06:47:58;15.60;;;12.50;;
72974;SDS011;61166;54.228;37.632;2023-07-30T06:50:24;14.98;;;10.88;;
72974;SDS011;61166;54.228;37.632;2023-07-30T06:52:51;16.73;;;13.25;;
72974;SDS011;61166;54.228;37.632;2023-07-30T06:55:17;14.63;;;10.75;;
72974;SDS011;61166;54.228;37.632;2023-07-30T06:57:44;13.55;;;11.48;;
72974;SDS011;61166;54.228;37.632;2023-07-30T07:00:10;15.60;;;11.33;;
72974;SDS011;61166;54.228;37.632;2023-07-30T07:02:37;13.88;;;12.23;;
72974;SDS011;61166;54.228;37.632;2023-07-30T07:05:04;13.82;;;11.15;;
72974;SDS011;61166;54.228;37.632;2023-07-30T07:07:30;11.35;;;9.63;;
72974;SDS011;61166;54.228;37.632;2023-07-30T07:09:57;14.60;;;11.77;;
72974;SDS011;61166;54.228;37.632;2023-07-30T07:12:23;11.73;;;10.47;;
72974;SDS011;61166;54.228;37.632;2023-07-30T07:14:50;13.32;;;10.05;;
72974;SDS011;61166;54.228;37.632;2023-07-30T07:17:16;12.80;;;8.65;;
72974;SDS011;61166;54.228;37.632;2023-07-30T07:19:42;13.65;;;10.40;;
72974;SDS011;61166;54.228;37.632;2023-07-30T07:22:09;12.60;;;9.82;;
72974;SDS011;61166;54.228;37.632;2023-07-30T07:24:35;14.10;;;9.67;;
72974;SDS011;61166;54.228;37.632;2023-07-30T07:27:02;12.82;;;9.57;;
72974;SDS011;61166;54.228;37.632;2023-07-30T07:29:29;12.43;;;10.07;;
72974;SDS011;61166;54.228;37.632;2023-07-30T07:31:55;14.10;;;11.52;;
72974;SDS011;61166;54.228;37.632;2023-07-30T07:34:22;12.52;;;8.32;;
72974;SDS011;61166;54.228;37.632;2023-07-30T07:36:49;12.07;;;9.87;;
72974;SDS011;61166;54.228;37.632;2023-07-30T07:39:15;12.40;;;9.98;;
72974;SDS011;61166;54.228;37.632;2023-07-30T07:41:41;14.45;;;11.10;;
72974;SDS011;61166;54.228;37.632;2023-07-30T07:44:09;12.52;;;10.27;;
72974;SDS011;61166;54.228;37.632;2023-07-30T07:46:35;14.52;;;10.75;;
72974;SDS011;61166;54.228;37.632;2023-07-30T07:49:02;13.07;;;10.63;;
72974;SDS011;61166;54.228;37.632;2023-07-30T07:51:29;12.93;;;9.38;;
72974;SDS011;61166;54.228;37.632;2023-07-30T07:53:55;13.13;;;11.13;;
72974;SDS011;61166;54.228;37.632;2023-07-30T07:56:21;11.10;;;9.55;;
72974;SDS011;61166;54.228;37.632;2023-07-30T07:58:48;14.27;;;10.80;;
72974;SDS011;61166;54.228;37.632;2023-07-30T08:01:14;12.90;;;9.70;;
72974;SDS011;61166;54.228;37.632;2023-07-30T08:03:41;10.30;;;8.95;;
72974;SDS011;61166;54.228;37.632;2023-07-30T08:06:08;12.32;;;10.30;;
72974;SDS011;61166;54.228;37.632;2023-07-30T08:08:34;10.88;;;9.75;;
72974;SDS011;61166;54.228;37.632;2023-07-30T08:11:07;11.77;;;10.52;;
72974;SDS011;61166;54.228;37.632;2023-07-30T08:13:33;16.20;;;11.40;;
72974;SDS011;61166;54.228;37.632;2023-07-30T08:16:00;12.55;;;10.05;;
72974;SDS011;61166;54.228;37.632;2023-07-30T08:18:27;13.95;;;11.88;;
72974;SDS011;61166;54.228;37.632;2023-07-30T08:20:53;13.15;;;10.32;;
72974;SDS011;61166;54.228;37.632;2023-07-30T08:23:20;14.35;;;8.55;;
72974;SDS011;61166;54.228;37.632;2023-07-30T08:25:47;11.77;;;7.90;;
72974;SDS011;61166;54.228;37.632;2023-07-30T08:28:14;11.80;;;9.88;;
72974;SDS011;61166;54.228;37.632;2023-07-30T08:30:40;11.82;;;9.80;;
72974;SDS011;61166;54.228;37.632;2023-07-30T08:33:07;13.05;;;9.98;;
72974;SDS011;61166;54.228;37.632;2023-07-30T08:35:34;11.85;;;9.30;;
72974;SDS011;61166;54.228;37.632;2023-07-30T08:38:00;10.10;;;7.20;;
72974;SDS011;61166;54.228;37.632;2023-07-30T08:40:27;13.50;;;7.63;;
72974;SDS011;61166;54.228;37.632;2023-07-30T08:42:54;9.57;;;6.78;;
72974;SDS011;61166;54.228;37.632;2023-07-30T08:45:20;11.90;;;8.35;;
72974;SDS011;61166;54.228;37.632;2023-07-30T08:47:47;11.00;;;7.45;;
72974;SDS011;61166;54.228;37.632;2023-07-30T08:50:14;11.07;;;7.27;;
72974;SDS011;61166;54.228;37.632;2023-07-30T08:52:40;13.02;;;8.15;;
72974;SDS011;61166;54.228;37.632;2023-07-30T08:55:07;11.02;;;6.55;;
72974;SDS011;61166;54.228;37.632;2023-07-30T08:57:33;10.48;;;7.53;;
72974;SDS011;61166;54.228;37.632;2023-07-30T09:00:05;12.90;;;9.35;;
72974;SDS011;61166;54.228;37.632;2023-07-30T09:02:36;13.53;;;8.40;;
72974;SDS011;61166;54.228;37.632;2023-07-30T09:05:03;13.43;;;7.65;;
72974;SDS011;61166;54.228;37.632;2023-07-30T09:07:30;9.48;;;7.30;;
72974;SDS011;61166;54.228;37.632;2023-07-30T09:09:56;11.10;;;9.68;;
72974;SDS011;61166;54.228;37.632;2023-07-30T09:12:30;12.70;;;9.93;;
72974;SDS011;61166;54.228;37.632;2023-07-30T09:14:57;12.50;;;8.70;;
72974;SDS011;61166;54.228;37.632;2023-07-30T09:17:23;13.50;;;9.80;;
72974;SDS011;61166;54.228;37.632;2023-07-30T09:19:50;11.30;;;9.93;;
72974;SDS011;61166;54.228;37.632;2023-07-30T09:22:20;13.38;;;9.07;;
72974;SDS011;61166;54.228;37.632;2023-07-30T09:24:46;11.88;;;8.70;;
72974;SDS011;61166;54.228;37.632;2023-07-30T09:27:19;11.60;;;8.93;;
72974;SDS011;61166;54.228;37.632;2023-07-30T09:29:49;9.32;;;7.13;;
72974;SDS011;61166;54.228;37.632;2023-07-30T09:32:16;9.80;;;7.63;;
72974;SDS011;61166;54.228;37.632;2023-07-30T09:34:44;11.77;;;8.95;;
72974;SDS011;61166;54.228;37.632;2023-07-30T09:37:10;10.52;;;7.07;;
72974;SDS011;61166;54.228;37.632;2023-07-30T09:39:37;10.30;;;6.43;;
72974;SDS011;61166;54.228;37.632;2023-07-30T09:42:03;11.82;;;6.60;;
72974;SDS011;61166;54.228;37.632;2023-07-30T09:44:31;12.43;;;9.07;;
72974;SDS011;61166;54.228;37.632;2023-07-30T09:47:00;11.93;;;8.38;;
72974;SDS011;61166;54.228;37.632;2023-07-30T09:49:27;11.90;;;8.10;;
72974;SDS011;61166;54.228;37.632;2023-07-30T09:51:53;12.27;;;8.33;;
72974;SDS011;61166;54.228;37.632;2023-07-30T09:54:20;10.82;;;8.32;;
72974;SDS011;61166;54.228;37.632;2023-07-30T09:56:47;11.73;;;8.18;;
72974;SDS011;61166;54.228;37.632;2023-07-30T09:59:13;13.10;;;6.70;;
72974;SDS011;61166;54.228;37.632;2023-07-30T10:01:43;12.48;;;8.52;;
72974;SDS011;61166;54.228;37.632;2023-07-30T10:04:10;12.13;;;7.40;;
72974;SDS011;61166;54.228;37.632;2023-07-30T10:06:56;11.50;;;6.43;;
72974;SDS011;61166;54.228;37.632;2023-07-30T10:09:25;19.63;;;10.00;;
72974;SDS011;61166;54.228;37.632;2023-07-30T10:11:54;15.75;;;8.20;;
72974;SDS011;61166;54.228;37.632;2023-07-30T10:14:21;16.75;;;8.40;;
72974;SDS011;61166;54.228;37.632;2023-07-30T10:16:57;17.43;;;8.93;;
72974;SDS011;61166;54.228;37.632;2023-07-30T10:19:25;15.57;;;8.68;;
72974;SDS011;61166;54.228;37.632;2023-07-30T10:21:53;14.90;;;8.38;;
72974;SDS011;61166;54.228;37.632;2023-07-30T10:24:56;16.67;;;8.77;;
72974;SDS011;61166;54.228;37.632;2023-07-30T10:27:25;19.30;;;8.88;;
72974;SDS011;61166;54.228;37.632;2023-07-30T10:32:42;19.02;;;9.73;;
72974;SDS011;61166;54.228;37.632;2023-07-30T10:35:34;18.23;;;10.40;;
72974;SDS011;61166;54.228;37.632;2023-07-30T10:43:35;18.47;;;9.97;;
72974;SDS011;61166;54.228;37.632;2023-07-30T10:46:05;17.33;;;8.90;;
72974;SDS011;61166;54.228;37.632;2023-07-30T10:48:36;18.70;;;11.50;;
72974;SDS011;61166;54.228;37.632;2023-07-30T10:51:08;29.15;;;15.77;;
72974;SDS011;61166;54.228;37.632;2023-07-30T10:53:35;26.02;;;15.00;;
72974;SDS011;61166;54.228;37.632;2023-07-30T10:56:05;29.80;;;16.70;;
72974;SDS011;61166;54.228;37.632;2023-07-30T10:58:35;24.17;;;13.32;;
72974;SDS011;61166;54.228;37.632;2023-07-30T11:01:03;32.25;;;16.98;;
72974;SDS011;61166;54.228;37.632;2023-07-30T11:03:32;28.58;;;16.02;;
72974;SDS011;61166;54.228;37.632;2023-07-30T11:06:00;56.78;;;38.42;;
72974;SDS011;61166;54.228;37.632;2023-07-30T11:08:32;28.00;;;16.80;;
72974;SDS011;61166;54.228;37.632;2023-07-30T11:10:59;36.50;;;22.65;;
72974;SDS011;61166;54.228;37.632;2023-07-30T11:13:27;23.95;;;14.57;;
72974;SDS011;61166;54.228;37.632;2023-07-30T11:15:53;27.27;;;18.88;;
72974;SDS011;61166;54.228;37.632;2023-07-30T11:18:21;23.50;;;14.52;;
72974;SDS011;61166;54.228;37.632;2023-07-30T11:20:49;151.47;;;78.70;;
72974;SDS011;61166;54.228;37.632;2023-07-30T11:23:19;40.20;;;34.38;;
72974;SDS011;61166;54.228;37.632;2023-07-30T11:25:48;34.67;;;28.67;;
72974;SDS011;61166;54.228;37.632;2023-07-30T11:28:27;30.90;;;25.35;;
72974;SDS011;61166;54.228;37.632;2023-07-30T11:30:55;30.85;;;26.42;;
72974;SDS011;61166;54.228;37.632;2023-07-30T11:33:24;28.67;;;21.53;;
72974;SDS011;61166;54.228;37.632;2023-07-30T11:35:51;20.13;;;16.70;;
72974;SDS011;61166;54.228;37.632;2023-07-30T11:38:17;23.00;;;16.73;;
72974;SDS011;61166;54.228;37.632;2023-07-30T11:40:44;24.48;;;15.75;;
72974;SDS011;61166;54.228;37.632;2023-07-30T11:43:11;28.80;;;17.48;;
72974;SDS011;61166;54.228;37.632;2023-07-30T11:45:37;85.47;;;54.73;;
72974;SDS011;61166;54.228;37.632;2023-07-30T11:48:08;35.78;;;29.77;;
72974;SDS011;61166;54.228;37.632;2023-07-30T11:53:18;25.17;;;17.90;;
72974;SDS011;61166;54.228;37.632;2023-07-30T11:55:44;21.75;;;13.35;;
72974;SDS011;61166;54.228;37.632;2023-07-30T11:58:12;20.80;;;12.40;;
72974;SDS011;61166;54.228;37.632;2023-07-30T12:00:40;19.98;;;12.02;;
72974;SDS011;61166;54.228;37.632;2023-07-30T12:03:10;30.13;;;21.25;;
72974;SDS011;61166;54.228;37.632;2023-07-30T12:05:37;20.35;;;12.23;;
72974;SDS011;61166;54.228;37.632;2023-07-30T12:08:06;17.33;;;11.13;;
72974;SDS011;61166;54.228;37.632;2023-07-30T12:10:46;22.03;;;13.73;;
72974;SDS011;61166;54.228;37.632;2023-07-30T12:13:16;16.15;;;8.93;;
72974;SDS011;61166;54.228;37.632;2023-07-30T12:15:50;69.03;;;51.85;;
72974;SDS011;61166;54.228;37.632;2023-07-30T12:18:21;34.42;;;26.17;;
72974;SDS011;61166;54.228;37.632;2023-07-30T12:20:48;27.42;;;19.55;;
72974;SDS011;61166;54.228;37.632;2023-07-30T12:23:15;26.13;;;18.73;;
72974;SDS011;61166;54.228;37.632;2023-07-30T12:25:42;27.83;;;18.88;;
72974;SDS011;61166;54.228;37.632;2023-07-30T12:28:08;24.75;;;15.95;;
72974;SDS011;61166;54.228;37.632;2023-07-30T12:30:35;23.90;;;15.13;;
72974;SDS011;61166;54.228;37.632;2023-07-30T12:33:04;20.50;;;12.55;;
72974;SDS011;61166;54.228;37.632;2023-07-30T12:35:32;19.87;;;12.10;;
72974;SDS011;61166;54.228;37.632;2023-07-30T12:37:59;19.75;;;11.10;;
72974;SDS011;61166;54.228;37.632;2023-07-30T12:40:27;19.42;;;12.27;;
72974;SDS011;61166;54.228;37.632;2023-07-30T12:42:54;14.77;;;8.77;;
72974;SDS011;61166;54.228;37.632;2023-07-30T12:45:21;18.98;;;11.43;;
72974;SDS011;61166;54.228;37.632;2023-07-30T12:47:48;17.87;;;10.73;;
72974;SDS011;61166;54.228;37.632;2023-07-30T12:50:15;14.60;;;8.20;;
72974;SDS011;61166;54.228;37.632;2023-07-30T12:52:42;16.75;;;9.77;;
72974;SDS011;61166;54.228;37.632;2023-07-30T12:55:08;23.15;;;15.95;;
72974;SDS011;61166;54.228;37.632;2023-07-30T12:57:35;21.20;;;13.00;;
72974;SDS011;61166;54.228;37.632;2023-07-30T13:00:02;16.27;;;10.13;;
72974;SDS011;61166;54.228;37.632;2023-07-30T13:02:29;22.58;;;12.05;;
72974;SDS011;61166;54.228;37.632;2023-07-30T13:04:55;20.60;;;12.02;;
72974;SDS011;61166;54.228;37.632;2023-07-30T13:07:22;18.65;;;11.13;;
72974;SDS011;61166;54.228;37.632;2023-07-30T13:09:54;15.25;;;9.63;;
72974;SDS011;61166;54.228;37.632;2023-07-30T13:12:28;28.27;;;21.80;;
72974;SDS011;61166;54.228;37.632;2023-07-30T13:14:55;35.03;;;31.00;;
72974;SDS011;61166;54.228;37.632;2023-07-30T13:17:21;26.63;;;22.67;;
72974;SDS011;61166;54.228;37.632;2023-07-30T13:19:48;28.40;;;23.27;;
72974;SDS011;61166;54.228;37.632;2023-07-30T13:22:15;37.83;;;32.20;;
72974;SDS011;61166;54.228;37.632;2023-07-30T13:24:41;31.60;;;28.30;;
72974;SDS011;61166;54.228;37.632;2023-07-30T13:27:08;34.95;;;31.38;;
72974;SDS011;61166;54.228;37.632;2023-07-30T13:29:35;44.38;;;38.78;;
72974;SDS011;61166;54.228;37.632;2023-07-30T13:32:03;35.60;;;30.95;;
72974;SDS011;61166;54.228;37.632;2023-07-30T13:34:31;31.45;;;26.17;;
72974;SDS011;61166;54.228;37.632;2023-07-30T13:36:58;39.10;;;30.23;;
72974;SDS011;61166;54.228;37.632;2023-07-30T13:39:24;26.00;;;20.45;;
72974;SDS011;61166;54.228;37.632;2023-07-30T13:41:51;22.77;;;15.65;;
72974;SDS011;61166;54.228;37.632;2023-07-30T13:44:17;21.20;;;13.80;;
72974;SDS011;61166;54.228;37.632;2023-07-30T13:46:44;18.50;;;11.15;;
72974;SDS011;61166;54.228;37.632;2023-07-30T13:49:11;71.33;;;53.10;;
72974;SDS011;61166;54.228;37.632;2023-07-30T13:51:38;28.17;;;19.88;;
72974;SDS011;61166;54.228;37.632;2023-07-30T13:54:04;23.50;;;16.33;;
72974;SDS011;61166;54.228;37.632;2023-07-30T13:56:31;19.35;;;12.00;;
72974;SDS011;61166;54.228;37.632;2023-07-30T13:58:58;46.53;;;39.58;;
72974;SDS011;61166;54.228;37.632;2023-07-30T14:01:25;56.50;;;46.13;;
72974;SDS011;61166;54.228;37.632;2023-07-30T14:03:52;47.53;;;40.33;;
72974;SDS011;61166;54.228;37.632;2023-07-30T14:06:18;20.33;;;14.30;;
72974;SDS011;61166;54.228;37.632;2023-07-30T14:08:45;17.40;;;10.82;;
72974;SDS011;61166;54.228;37.632;2023-07-30T14:11:11;30.17;;;19.42;;
72974;SDS011;61166;54.228;37.632;2023-07-30T14:13:38;24.13;;;14.30;;
72974;SDS011;61166;54.228;37.632;2023-07-30T14:16:04;42.10;;;34.75;;
72974;SDS011;61166;54.228;37.632;2023-07-30T14:18:31;22.10;;;14.50;;
72974;SDS011;61166;54.228;37.632;2023-07-30T14:20:59;29.35;;;24.98;;